sensor_id;sensor_type;location;lat;lon;timestamp;P1;durP1;ratioP1;P2;durP2;ratioP2
37284;SDS011;23172;53.550;9.964;2023-04-15T00:04:10;4.40;;;4.00;;
37284;SDS011;23172;53.550;9.964;2023-04-15T00:09:12;4.15;;;3.75;;
37284;SDS011;23172;53.550;9.964;2023-04-15T00:14:14;5.03;;;4.55;;
37284;SDS011;23172;53.550;9.964;2023-04-15T00:19:17;5.28;;;4.75;;
37284;SDS011;23172;53.550;9.964;2023-04-15T00:24:19;8.88;;;7.95;;
37284;SDS011;23172;53.550;9.964;2023-04-15T00:29:22;5.35;;;4.85;;
37284;SDS011;23172;53.550;9.964;2023-04-15T00:34:25;5.65;;;5.10;;
37284;SDS011;23172;53.550;9.964;2023-04-15T00:39:27;7.57;;;6.82;;
37284;SDS011;23172;53.550;9.964;2023-04-15T00:44:29;6.35;;;4.75;;
37284;SDS011;23172;53.550;9.964;2023-04-15T00:49:33;6.18;;;4.45;;
37284;SDS011;23172;53.550;9.964;2023-04-15T00:54:35;5.43;;;4.75;;
37284;SDS011;23172;53.550;9.964;2023-04-15T00:59:37;11.15;;;9.02;;
37284;SDS011;23172;53.550;9.964;2023-04-15T01:04:41;70.03;;;51.72;;
37284;SDS011;23172;53.550;9.964;2023-04-15T01:09:42;9.55;;;8.40;;
37284;SDS011;23172;53.550;9.964;2023-04-15T01:14:45;9.52;;;7.28;;
37284;SDS011;23172;53.550;9.964;2023-04-15T01:19:48;5.13;;;4.63;;
37284;SDS011;23172;53.550;9.964;2023-04-15T01:24:53;5.18;;;4.45;;
37284;SDS011;23172;53.550;9.964;2023-04-15T01:30:02;5.30;;;4.80;;
37284;SDS011;23172;53.550;9.964;2023-04-15T01:35:05;6.63;;;5.97;;
37284;SDS011;23172;53.550;9.964;2023-04-15T01:40:08;6.70;;;6.00;;
37284;SDS011;23172;53.550;9.964;2023-04-15T01:45:11;5.43;;;4.93;;
37284;SDS011;23172;53.550;9.964;2023-04-15T01:50:13;5.35;;;4.70;;
37284;SDS011;23172;53.550;9.964;2023-04-15T01:55:15;5.78;;;5.13;;
37284;SDS011;23172;53.550;9.964;2023-04-15T02:00:18;4.72;;;4.30;;
37284;SDS011;23172;53.550;9.964;2023-04-15T02:05:21;6.82;;;5.50;;
37284;SDS011;23172;53.550;9.964;2023-04-15T02:10:23;5.93;;;5.32;;
37284;SDS011;23172;53.550;9.964;2023-04-15T02:15:26;5.38;;;4.85;;
37284;SDS011;23172;53.550;9.964;2023-04-15T02:20:28;5.50;;;5.00;;
37284;SDS011;23172;53.550;9.964;2023-04-15T02:25:31;5.43;;;4.93;;
37284;SDS011;23172;53.550;9.964;2023-04-15T02:30:34;6.15;;;5.43;;
37284;SDS011;23172;53.550;9.964;2023-04-15T02:35:36;5.53;;;5.03;;
37284;SDS011;23172;53.550;9.964;2023-04-15T02:40:41;6.30;;;5.55;;
37284;SDS011;23172;53.550;9.964;2023-04-15T02:45:45;6.97;;;6.28;;
37284;SDS011;23172;53.550;9.964;2023-04-15T02:50:47;6.90;;;6.20;;
37284;SDS011;23172;53.550;9.964;2023-04-15T02:55:49;6.32;;;5.72;;
37284;SDS011;23172;53.550;9.964;2023-04-15T03:00:52;7.15;;;6.45;;
37284;SDS011;23172;53.550;9.964;2023-04-15T03:05:54;7.80;;;6.78;;
37284;SDS011;23172;53.550;9.964;2023-04-15T03:10:57;8.60;;;7.40;;
37284;SDS011;23172;53.550;9.964;2023-04-15T03:16:01;7.43;;;6.68;;
37284;SDS011;23172;53.550;9.964;2023-04-15T03:21:03;7.60;;;6.80;;
37284;SDS011;23172;53.550;9.964;2023-04-15T03:26:05;7.15;;;6.45;;
37284;SDS011;23172;53.550;9.964;2023-04-15T03:31:08;6.95;;;6.25;;
37284;SDS011;23172;53.550;9.964;2023-04-15T03:36:10;8.35;;;7.40;;
37284;SDS011;23172;53.550;9.964;2023-04-15T03:41:12;6.65;;;5.97;;
37284;SDS011;23172;53.550;9.964;2023-04-15T03:46:15;7.25;;;6.55;;
37284;SDS011;23172;53.550;9.964;2023-04-15T03:51:17;6.32;;;5.45;;
37284;SDS011;23172;53.550;9.964;2023-04-15T03:56:19;10.27;;;8.45;;
37284;SDS011;23172;53.550;9.964;2023-04-15T04:01:22;9.13;;;8.10;;
37284;SDS011;23172;53.550;9.964;2023-04-15T04:06:25;9.00;;;8.07;;
37284;SDS011;23172;53.550;9.964;2023-04-15T04:11:27;9.30;;;7.10;;
37284;SDS011;23172;53.550;9.964;2023-04-15T04:16:30;6.95;;;6.05;;
37284;SDS011;23172;53.550;9.964;2023-04-15T04:21:32;8.25;;;7.30;;
37284;SDS011;23172;53.550;9.964;2023-04-15T04:26:35;12.15;;;9.05;;
37284;SDS011;23172;53.550;9.964;2023-04-15T04:31:38;10.15;;;8.27;;
37284;SDS011;23172;53.550;9.964;2023-04-15T04:36:41;10.75;;;9.20;;
37284;SDS011;23172;53.550;9.964;2023-04-15T04:41:43;12.50;;;10.40;;
37284;SDS011;23172;53.550;9.964;2023-04-15T04:46:46;14.32;;;11.55;;
37284;SDS011;23172;53.550;9.964;2023-04-15T04:51:48;12.23;;;10.50;;
37284;SDS011;23172;53.550;9.964;2023-04-15T04:56:52;15.55;;;11.55;;
37284;SDS011;23172;53.550;9.964;2023-04-15T05:01:55;13.13;;;10.73;;
37284;SDS011;23172;53.550;9.964;2023-04-15T05:06:57;10.88;;;9.50;;
37284;SDS011;23172;53.550;9.964;2023-04-15T05:11:59;17.15;;;13.55;;
37284;SDS011;23172;53.550;9.964;2023-04-15T05:17:03;14.63;;;11.75;;
37284;SDS011;23172;53.550;9.964;2023-04-15T05:22:05;20.50;;;14.70;;
37284;SDS011;23172;53.550;9.964;2023-04-15T05:27:07;16.38;;;13.30;;
37284;SDS011;23172;53.550;9.964;2023-04-15T05:32:12;15.88;;;12.23;;
37284;SDS011;23172;53.550;9.964;2023-04-15T05:37:14;17.25;;;14.02;;
37284;SDS011;23172;53.550;9.964;2023-04-15T05:42:16;22.45;;;16.40;;
37284;SDS011;23172;53.550;9.964;2023-04-15T05:47:19;22.02;;;16.63;;
37284;SDS011;23172;53.550;9.964;2023-04-15T05:52:21;21.65;;;17.08;;
37284;SDS011;23172;53.550;9.964;2023-04-15T05:57:23;20.13;;;15.30;;
37284;SDS011;23172;53.550;9.964;2023-04-15T06:02:26;14.80;;;11.20;;
37284;SDS011;23172;53.550;9.964;2023-04-15T06:07:28;21.13;;;16.65;;
37284;SDS011;23172;53.550;9.964;2023-04-15T06:12:30;21.25;;;17.05;;
37284;SDS011;23172;53.550;9.964;2023-04-15T06:17:33;19.20;;;16.40;;
37284;SDS011;23172;53.550;9.964;2023-04-15T06:22:36;19.83;;;15.25;;
37284;SDS011;23172;53.550;9.964;2023-04-15T06:27:38;19.48;;;16.25;;
37284;SDS011;23172;53.550;9.964;2023-04-15T06:32:41;16.30;;;13.15;;
37284;SDS011;23172;53.550;9.964;2023-04-15T06:37:43;21.50;;;17.08;;
37284;SDS011;23172;53.550;9.964;2023-04-15T06:42:45;24.42;;;19.45;;
37284;SDS011;23172;53.550;9.964;2023-04-15T06:47:49;21.95;;;17.55;;
37284;SDS011;23172;53.550;9.964;2023-04-15T06:52:51;24.45;;;18.95;;
37284;SDS011;23172;53.550;9.964;2023-04-15T06:57:53;15.25;;;11.60;;
37284;SDS011;23172;53.550;9.964;2023-04-15T07:02:57;25.80;;;20.30;;
37284;SDS011;23172;53.550;9.964;2023-04-15T07:07:59;19.67;;;15.73;;
37284;SDS011;23172;53.550;9.964;2023-04-15T07:13:03;28.70;;;22.23;;
37284;SDS011;23172;53.550;9.964;2023-04-15T07:18:09;28.33;;;22.30;;
37284;SDS011;23172;53.550;9.964;2023-04-15T07:23:11;28.67;;;23.13;;
37284;SDS011;23172;53.550;9.964;2023-04-15T07:28:12;30.80;;;24.27;;
37284;SDS011;23172;53.550;9.964;2023-04-15T07:33:16;32.75;;;25.45;;
37284;SDS011;23172;53.550;9.964;2023-04-15T07:38:18;24.90;;;19.95;;
37284;SDS011;23172;53.550;9.964;2023-04-15T07:43:20;26.77;;;20.83;;
37284;SDS011;23172;53.550;9.964;2023-04-15T07:48:23;28.33;;;21.58;;
37284;SDS011;23172;53.550;9.964;2023-04-15T07:53:25;32.25;;;25.23;;
37284;SDS011;23172;53.550;9.964;2023-04-15T07:58:27;22.52;;;17.88;;
37284;SDS011;23172;53.550;9.964;2023-04-15T08:03:30;32.30;;;24.45;;
37284;SDS011;23172;53.550;9.964;2023-04-15T08:08:33;30.50;;;23.17;;
37284;SDS011;23172;53.550;9.964;2023-04-15T08:13:34;31.80;;;23.05;;
37284;SDS011;23172;53.550;9.964;2023-04-15T08:18:38;37.75;;;24.85;;
37284;SDS011;23172;53.550;9.964;2023-04-15T08:23:40;34.85;;;26.13;;
37284;SDS011;23172;53.550;9.964;2023-04-15T08:28:42;32.67;;;23.67;;
37284;SDS011;23172;53.550;9.964;2023-04-15T08:33:46;29.25;;;23.55;;
37284;SDS011;23172;53.550;9.964;2023-04-15T08:38:51;32.72;;;26.38;;
37284;SDS011;23172;53.550;9.964;2023-04-15T08:43:53;33.80;;;27.13;;
37284;SDS011;23172;53.550;9.964;2023-04-15T08:49:00;33.97;;;26.33;;
37284;SDS011;23172;53.550;9.964;2023-04-15T08:54:04;30.83;;;25.33;;
37284;SDS011;23172;53.550;9.964;2023-04-15T08:59:07;28.73;;;22.10;;
37284;SDS011;23172;53.550;9.964;2023-04-15T09:04:11;35.13;;;27.08;;
37284;SDS011;23172;53.550;9.964;2023-04-15T09:09:14;26.30;;;20.80;;
37284;SDS011;23172;53.550;9.964;2023-04-15T09:14:16;33.22;;;24.77;;
37284;SDS011;23172;53.550;9.964;2023-04-15T09:19:23;31.08;;;25.10;;
37284;SDS011;23172;53.550;9.964;2023-04-15T09:24:25;34.55;;;27.48;;
37284;SDS011;23172;53.550;9.964;2023-04-15T09:29:37;32.97;;;23.73;;
37284;SDS011;23172;53.550;9.964;2023-04-15T09:34:42;35.92;;;26.33;;
37284;SDS011;23172;53.550;9.964;2023-04-15T09:39:45;34.20;;;27.05;;
37284;SDS011;23172;53.550;9.964;2023-04-15T09:44:49;36.10;;;28.50;;
37284;SDS011;23172;53.550;9.964;2023-04-15T09:49:55;37.05;;;29.38;;
37284;SDS011;23172;53.550;9.964;2023-04-15T09:54:58;21.80;;;18.70;;
37284;SDS011;23172;53.550;9.964;2023-04-15T10:00:01;18.98;;;16.25;;
37284;SDS011;23172;53.550;9.964;2023-04-15T10:05:05;30.75;;;23.95;;
37284;SDS011;23172;53.550;9.964;2023-04-15T10:10:11;30.55;;;24.88;;
37284;SDS011;23172;53.550;9.964;2023-04-15T10:15:14;30.98;;;25.45;;
37284;SDS011;23172;53.550;9.964;2023-04-15T10:20:18;34.58;;;27.77;;
37284;SDS011;23172;53.550;9.964;2023-04-15T10:25:22;30.25;;;26.70;;
37284;SDS011;23172;53.550;9.964;2023-04-15T10:30:26;17.98;;;16.08;;
37284;SDS011;23172;53.550;9.964;2023-04-15T10:35:31;20.90;;;18.63;;
37284;SDS011;23172;53.550;9.964;2023-04-15T10:40:34;78.03;;;57.47;;
37284;SDS011;23172;53.550;9.964;2023-04-15T10:45:37;24.90;;;21.90;;
37284;SDS011;23172;53.550;9.964;2023-04-15T10:50:41;21.65;;;18.35;;
37284;SDS011;23172;53.550;9.964;2023-04-15T10:55:56;23.05;;;17.67;;
37284;SDS011;23172;53.550;9.964;2023-04-15T11:00:58;20.65;;;17.02;;
37284;SDS011;23172;53.550;9.964;2023-04-15T11:06:05;15.88;;;14.23;;
37284;SDS011;23172;53.550;9.964;2023-04-15T11:11:07;11.82;;;10.70;;
37284;SDS011;23172;53.550;9.964;2023-04-15T11:16:09;19.23;;;17.23;;
37284;SDS011;23172;53.550;9.964;2023-04-15T11:21:13;21.88;;;13.90;;
37284;SDS011;23172;53.550;9.964;2023-04-15T11:26:15;10.90;;;9.80;;
37284;SDS011;23172;53.550;9.964;2023-04-15T11:31:17;8.05;;;7.25;;
37284;SDS011;23172;53.550;9.964;2023-04-15T11:36:20;11.95;;;10.52;;
37284;SDS011;23172;53.550;9.964;2023-04-15T11:41:26;12.52;;;11.07;;
37284;SDS011;23172;53.550;9.964;2023-04-15T11:46:28;15.63;;;11.98;;
37284;SDS011;23172;53.550;9.964;2023-04-15T11:51:33;9.52;;;8.52;;
37284;SDS011;23172;53.550;9.964;2023-04-15T11:56:35;7.57;;;6.88;;
37284;SDS011;23172;53.550;9.964;2023-04-15T12:01:37;9.25;;;8.30;;
37284;SDS011;23172;53.550;9.964;2023-04-15T12:06:42;7.55;;;6.82;;
37284;SDS011;23172;53.550;9.964;2023-04-15T12:11:45;11.75;;;10.48;;
37284;SDS011;23172;53.550;9.964;2023-04-15T12:16:48;11.98;;;10.75;;
37284;SDS011;23172;53.550;9.964;2023-04-15T12:21:56;14.18;;;12.80;;
37284;SDS011;23172;53.550;9.964;2023-04-15T12:27:03;10.40;;;9.45;;
37284;SDS011;23172;53.550;9.964;2023-04-15T12:32:06;12.25;;;11.07;;
37284;SDS011;23172;53.550;9.964;2023-04-15T12:37:11;11.00;;;9.90;;
37284;SDS011;23172;53.550;9.964;2023-04-15T12:42:13;14.65;;;12.07;;
37284;SDS011;23172;53.550;9.964;2023-04-15T12:47:16;12.00;;;10.80;;
37284;SDS011;23172;53.550;9.964;2023-04-15T12:52:20;13.38;;;11.50;;
37284;SDS011;23172;53.550;9.964;2023-04-15T12:57:23;12.68;;;10.48;;
37284;SDS011;23172;53.550;9.964;2023-04-15T13:02:25;10.80;;;9.43;;
37284;SDS011;23172;53.550;9.964;2023-04-15T13:07:29;14.15;;;12.75;;
37284;SDS011;23172;53.550;9.964;2023-04-15T13:12:31;10.07;;;9.05;;
37284;SDS011;23172;53.550;9.964;2023-04-15T13:17:35;11.00;;;9.82;;
37284;SDS011;23172;53.550;9.964;2023-04-15T13:22:38;12.85;;;11.18;;
37284;SDS011;23172;53.550;9.964;2023-04-15T13:27:40;11.57;;;10.38;;
37284;SDS011;23172;53.550;9.964;2023-04-15T13:32:42;10.43;;;9.45;;
37284;SDS011;23172;53.550;9.964;2023-04-15T13:37:46;11.23;;;9.98;;
37284;SDS011;23172;53.550;9.964;2023-04-15T13:42:48;13.32;;;10.50;;
37284;SDS011;23172;53.550;9.964;2023-04-15T13:47:50;11.05;;;9.88;;
37284;SDS011;23172;53.550;9.964;2023-04-15T13:52:55;9.95;;;8.95;;
37284;SDS011;23172;53.550;9.964;2023-04-15T13:57:56;12.32;;;11.13;;
37284;SDS011;23172;53.550;9.964;2023-04-15T14:02:58;9.60;;;8.60;;
37284;SDS011;23172;53.550;9.964;2023-04-15T14:08:02;8.43;;;7.63;;
37284;SDS011;23172;53.550;9.964;2023-04-15T14:13:03;6.65;;;6.05;;
37284;SDS011;23172;53.550;9.964;2023-04-15T14:18:05;8.88;;;8.07;;
37284;SDS011;23172;53.550;9.964;2023-04-15T14:23:09;9.45;;;8.45;;
37284;SDS011;23172;53.550;9.964;2023-04-15T14:28:11;9.70;;;8.80;;
37284;SDS011;23172;53.550;9.964;2023-04-15T14:33:13;10.43;;;9.25;;
37284;SDS011;23172;53.550;9.964;2023-04-15T14:38:16;9.68;;;8.65;;
37284;SDS011;23172;53.550;9.964;2023-04-15T14:43:19;11.07;;;10.02;;
37284;SDS011;23172;53.550;9.964;2023-04-15T14:48:21;7.68;;;6.97;;
37284;SDS011;23172;53.550;9.964;2023-04-15T14:53:24;10.00;;;9.00;;
37284;SDS011;23172;53.550;9.964;2023-04-15T14:58:26;7.43;;;6.70;;
37284;SDS011;23172;53.550;9.964;2023-04-15T15:03:28;8.35;;;7.25;;
37284;SDS011;23172;53.550;9.964;2023-04-15T15:08:31;7.35;;;6.75;;
37284;SDS011;23172;53.550;9.964;2023-04-15T15:13:33;10.45;;;8.27;;
37284;SDS011;23172;53.550;9.964;2023-04-15T15:18:35;9.35;;;8.55;;
37284;SDS011;23172;53.550;9.964;2023-04-15T15:23:39;15.95;;;12.45;;
37284;SDS011;23172;53.550;9.964;2023-04-15T15:28:41;11.35;;;10.20;;
37284;SDS011;23172;53.550;9.964;2023-04-15T15:33:44;12.23;;;10.43;;
37284;SDS011;23172;53.550;9.964;2023-04-15T15:38:47;10.25;;;9.27;;
37284;SDS011;23172;53.550;9.964;2023-04-15T15:43:49;6.80;;;6.25;;
37284;SDS011;23172;53.550;9.964;2023-04-15T15:48:51;6.30;;;5.78;;
37284;SDS011;23172;53.550;9.964;2023-04-15T15:53:55;9.57;;;8.68;;
37284;SDS011;23172;53.550;9.964;2023-04-15T15:58:56;9.80;;;8.93;;
37284;SDS011;23172;53.550;9.964;2023-04-15T16:03:58;8.07;;;7.30;;
37284;SDS011;23172;53.550;9.964;2023-04-15T16:09:02;10.50;;;9.35;;
37284;SDS011;23172;53.550;9.964;2023-04-15T16:14:04;9.60;;;8.70;;
37284;SDS011;23172;53.550;9.964;2023-04-15T16:19:06;10.02;;;8.95;;
37284;SDS011;23172;53.550;9.964;2023-04-15T16:24:09;10.85;;;9.80;;
37284;SDS011;23172;53.550;9.964;2023-04-15T16:29:11;11.57;;;10.38;;
37284;SDS011;23172;53.550;9.964;2023-04-15T16:34:13;11.38;;;10.10;;
37284;SDS011;23172;53.550;9.964;2023-04-15T16:39:16;10.20;;;9.20;;
37284;SDS011;23172;53.550;9.964;2023-04-15T16:49:24;9.35;;;8.40;;
37284;SDS011;23172;53.550;9.964;2023-04-15T16:54:27;28.55;;;20.88;;
37284;SDS011;23172;53.550;9.964;2023-04-15T16:59:30;13.40;;;11.98;;
37284;SDS011;23172;53.550;9.964;2023-04-15T17:04:32;14.77;;;13.30;;
37284;SDS011;23172;53.550;9.964;2023-04-15T17:09:35;14.23;;;12.75;;
37284;SDS011;23172;53.550;9.964;2023-04-15T17:14:38;17.35;;;15.55;;
37284;SDS011;23172;53.550;9.964;2023-04-15T17:19:40;19.70;;;17.63;;
37284;SDS011;23172;53.550;9.964;2023-04-15T17:24:44;16.38;;;14.45;;
37284;SDS011;23172;53.550;9.964;2023-04-15T17:29:45;13.35;;;11.18;;
37284;SDS011;23172;53.550;9.964;2023-04-15T17:34:47;18.63;;;16.75;;
37284;SDS011;23172;53.550;9.964;2023-04-15T17:39:51;15.98;;;14.38;;
37284;SDS011;23172;53.550;9.964;2023-04-15T17:44:53;66.78;;;57.17;;
37284;SDS011;23172;53.550;9.964;2023-04-15T17:49:55;21.45;;;19.25;;
37284;SDS011;23172;53.550;9.964;2023-04-15T17:54:58;17.88;;;16.08;;
37284;SDS011;23172;53.550;9.964;2023-04-15T18:00:00;19.40;;;17.35;;
37284;SDS011;23172;53.550;9.964;2023-04-15T18:05:02;17.40;;;15.63;;
37284;SDS011;23172;53.550;9.964;2023-04-15T18:10:07;19.55;;;17.52;;
37284;SDS011;23172;53.550;9.964;2023-04-15T18:15:10;20.30;;;17.95;;
37284;SDS011;23172;53.550;9.964;2023-04-15T18:20:13;20.70;;;18.65;;
37284;SDS011;23172;53.550;9.964;2023-04-15T18:25:17;20.88;;;18.10;;
37284;SDS011;23172;53.550;9.964;2023-04-15T18:30:19;14.10;;;12.65;;
37284;SDS011;23172;53.550;9.964;2023-04-15T18:35:21;23.92;;;21.42;;
37284;SDS011;23172;53.550;9.964;2023-04-15T18:40:24;16.10;;;14.50;;
37284;SDS011;23172;53.550;9.964;2023-04-15T18:45:27;24.00;;;19.95;;
37284;SDS011;23172;53.550;9.964;2023-04-15T18:50:30;19.50;;;16.90;;
37284;SDS011;23172;53.550;9.964;2023-04-15T18:55:33;21.75;;;18.50;;
37284;SDS011;23172;53.550;9.964;2023-04-15T19:00:35;20.92;;;18.65;;
37284;SDS011;23172;53.550;9.964;2023-04-15T19:05:42;17.33;;;15.43;;
37284;SDS011;23172;53.550;9.964;2023-04-15T19:10:46;18.98;;;17.08;;
37284;SDS011;23172;53.550;9.964;2023-04-15T19:15:47;11.63;;;10.48;;
37284;SDS011;23172;53.550;9.964;2023-04-15T19:20:49;19.98;;;17.77;;
37284;SDS011;23172;53.550;9.964;2023-04-15T19:25:53;17.33;;;15.50;;
37284;SDS011;23172;53.550;9.964;2023-04-15T19:30:56;14.68;;;13.15;;
37284;SDS011;23172;53.550;9.964;2023-04-15T19:35:59;20.88;;;17.70;;
37284;SDS011;23172;53.550;9.964;2023-04-15T19:41:04;24.00;;;18.95;;
37284;SDS011;23172;53.550;9.964;2023-04-15T19:46:08;20.98;;;17.13;;
37284;SDS011;23172;53.550;9.964;2023-04-15T19:51:12;19.50;;;16.48;;
37284;SDS011;23172;53.550;9.964;2023-04-15T19:56:15;19.92;;;16.98;;
37284;SDS011;23172;53.550;9.964;2023-04-15T20:01:17;24.45;;;19.63;;
37284;SDS011;23172;53.550;9.964;2023-04-15T20:06:19;17.20;;;15.18;;
37284;SDS011;23172;53.550;9.964;2023-04-15T20:11:23;16.05;;;14.32;;
37284;SDS011;23172;53.550;9.964;2023-04-15T20:16:28;18.30;;;14.85;;
37284;SDS011;23172;53.550;9.964;2023-04-15T20:21:30;15.63;;;13.15;;
37284;SDS011;23172;53.550;9.964;2023-04-15T20:26:33;17.83;;;15.27;;
37284;SDS011;23172;53.550;9.964;2023-04-15T20:31:35;16.33;;;13.63;;
37284;SDS011;23172;53.550;9.964;2023-04-15T20:36:37;15.00;;;12.93;;
37284;SDS011;23172;53.550;9.964;2023-04-15T20:41:40;16.92;;;13.95;;
37284;SDS011;23172;53.550;9.964;2023-04-15T20:46:42;16.25;;;14.35;;
37284;SDS011;23172;53.550;9.964;2023-04-15T20:51:44;17.42;;;13.57;;
37284;SDS011;23172;53.550;9.964;2023-04-15T20:56:48;16.38;;;13.82;;
37284;SDS011;23172;53.550;9.964;2023-04-15T21:01:49;14.60;;;11.50;;
37284;SDS011;23172;53.550;9.964;2023-04-15T21:06:51;18.55;;;14.48;;
37284;SDS011;23172;53.550;9.964;2023-04-15T21:11:55;12.65;;;11.35;;
37284;SDS011;23172;53.550;9.964;2023-04-15T21:16:57;14.57;;;12.95;;
37284;SDS011;23172;53.550;9.964;2023-04-15T21:21:58;16.58;;;14.82;;
37284;SDS011;23172;53.550;9.964;2023-04-15T21:27:02;20.92;;;17.70;;
37284;SDS011;23172;53.550;9.964;2023-04-15T21:32:05;15.43;;;13.82;;
37284;SDS011;23172;53.550;9.964;2023-04-15T21:37:06;12.50;;;11.13;;
37284;SDS011;23172;53.550;9.964;2023-04-15T21:42:10;13.90;;;12.15;;
37284;SDS011;23172;53.550;9.964;2023-04-15T21:47:12;18.40;;;14.95;;
37284;SDS011;23172;53.550;9.964;2023-04-15T21:52:13;18.25;;;16.30;;
37284;SDS011;23172;53.550;9.964;2023-04-15T21:57:18;19.55;;;15.25;;
37284;SDS011;23172;53.550;9.964;2023-04-15T22:02:19;15.48;;;13.13;;
37284;SDS011;23172;53.550;9.964;2023-04-15T22:07:21;19.38;;;16.15;;
37284;SDS011;23172;53.550;9.964;2023-04-15T22:12:25;12.20;;;10.90;;
37284;SDS011;23172;53.550;9.964;2023-04-15T22:17:27;11.82;;;10.15;;
37284;SDS011;23172;53.550;9.964;2023-04-15T22:22:28;16.77;;;13.25;;
37284;SDS011;23172;53.550;9.964;2023-04-15T22:27:32;21.38;;;17.10;;
37284;SDS011;23172;53.550;9.964;2023-04-15T22:32:34;18.40;;;16.40;;
37284;SDS011;23172;53.550;9.964;2023-04-15T22:37:36;16.83;;;14.20;;
37284;SDS011;23172;53.550;9.964;2023-04-15T22:42:39;18.30;;;15.38;;
37284;SDS011;23172;53.550;9.964;2023-04-15T22:47:41;18.10;;;16.13;;
37284;SDS011;23172;53.550;9.964;2023-04-15T22:52:43;19.65;;;15.63;;
37284;SDS011;23172;53.550;9.964;2023-04-15T22:57:48;14.48;;;12.15;;
37284;SDS011;23172;53.550;9.964;2023-04-15T23:02:51;15.55;;;13.80;;
37284;SDS011;23172;53.550;9.964;2023-04-15T23:07:53;26.92;;;19.30;;
37284;SDS011;23172;53.550;9.964;2023-04-15T23:12:56;17.50;;;15.07;;
37284;SDS011;23172;53.550;9.964;2023-04-15T23:17:58;17.02;;;15.18;;
37284;SDS011;23172;53.550;9.964;2023-04-15T23:23:01;16.25;;;14.50;;
37284;SDS011;23172;53.550;9.964;2023-04-15T23:28:04;17.45;;;13.52;;
37284;SDS011;23172;53.550;9.964;2023-04-15T23:33:06;15.90;;;14.13;;
37284;SDS011;23172;53.550;9.964;2023-04-15T23:38:08;18.05;;;15.07;;
37284;SDS011;23172;53.550;9.964;2023-04-15T23:43:11;13.55;;;11.93;;
37284;SDS011;23172;53.550;9.964;2023-04-15T23:48:13;11.45;;;10.27;;
37284;SDS011;23172;53.550;9.964;2023-04-15T23:53:15;14.88;;;13.27;;
37284;SDS011;23172;53.550;9.964;2023-04-15T23:58:19;15.75;;;13.88;;
